createdAt,value
2023-04-21T00:00:18.840Z,2
2023-04-21T00:05:19.029Z,3
2023-04-21T00:10:18.792Z,4
2023-04-21T00:15:19.033Z,4
2023-04-21T00:20:15.745Z,3
2023-04-21T00:25:15.728Z,3
2023-04-21T00:30:19.022Z,3
2023-04-21T00:35:18.878Z,2
2023-04-21T00:40:18.886Z,2
2023-04-21T00:45:18.914Z,2
2023-04-21T00:50:19.061Z,1
2023-04-21T00:55:18.923Z,1
2023-04-21T01:00:18.936Z,1
2023-04-21T01:05:18.886Z,1
2023-04-21T01:10:18.990Z,0
2023-04-21T01:15:15.853Z,2
2023-04-21T01:20:15.827Z,1
2023-04-21T01:25:19.045Z,1
2023-04-21T01:30:18.965Z,2
2023-04-21T01:35:18.966Z,1
2023-04-21T01:40:18.950Z,0
2023-04-21T01:45:18.908Z,0
2023-04-21T01:50:18.885Z,0
2023-04-21T01:55:19.000Z,0
2023-04-21T02:00:19.014Z,0
2023-04-21T02:05:19.009Z,0
2023-04-21T02:10:15.980Z,0
2023-04-21T02:15:16.117Z,0
2023-04-21T02:20:19.034Z,0
2023-04-21T02:25:19.120Z,0
2023-04-21T02:30:19.070Z,0
2023-04-21T02:35:19.180Z,0
2023-04-21T02:40:19.034Z,0
2023-04-21T02:45:19.177Z,0
2023-04-21T02:50:19.084Z,0
2023-04-21T02:55:19.109Z,0
2023-04-21T03:00:15.986Z,0
2023-04-21T03:05:15.940Z,0
2023-04-21T03:10:19.285Z,0
2023-04-21T03:15:19.164Z,0
2023-04-21T03:20:19.113Z,0
2023-04-21T03:25:19.129Z,0
2023-04-21T03:30:19.158Z,0
2023-04-21T03:35:19.146Z,0
2023-04-21T03:40:19.179Z,0
2023-04-21T03:45:19.279Z,0
2023-04-21T03:50:19.135Z,0
2023-04-21T03:55:16.124Z,1
2023-04-21T04:00:20.600Z,0
2023-04-21T04:05:20.469Z,0
2023-04-21T04:10:20.516Z,0
2023-04-21T04:15:20.512Z,0
2023-04-21T04:20:20.475Z,1
2023-04-21T04:25:17.445Z,0
2023-04-21T04:30:17.503Z,0
2023-04-21T04:35:20.517Z,0
2023-04-21T04:40:20.631Z,0
2023-04-21T04:45:20.539Z,1
2023-04-21T04:50:20.684Z,1
2023-04-21T04:55:20.446Z,1
2023-04-21T05:00:20.609Z,1
2023-04-21T05:05:20.544Z,1
2023-04-21T05:10:20.557Z,0
2023-04-21T05:15:20.637Z,1
2023-04-21T05:20:17.758Z,1
2023-04-21T05:25:20.651Z,0
2023-04-21T05:30:20.527Z,0
2023-04-21T05:35:20.631Z,0
2023-04-21T05:40:18.621Z,1
2023-04-21T05:45:18.737Z,1
2023-04-21T05:50:18.584Z,1
2023-04-21T05:55:15.558Z,0
2023-04-21T06:00:15.510Z,0
2023-04-21T06:05:18.930Z,0
2023-04-21T06:10:18.623Z,2
2023-04-21T06:15:18.617Z,1
2023-04-21T06:20:18.728Z,1
2023-04-21T06:25:18.670Z,1
2023-04-21T06:30:18.796Z,2
2023-04-21T06:35:18.637Z,5
2023-04-21T06:40:18.730Z,7
2023-04-21T06:45:18.815Z,4
2023-04-21T06:50:15.578Z,5
2023-04-21T06:55:15.624Z,5
2023-04-21T07:00:18.783Z,5
2023-04-21T07:05:18.750Z,4
2023-04-21T07:10:18.642Z,5
2023-04-21T07:15:18.690Z,3
2023-04-21T07:20:18.837Z,5
2023-04-21T07:25:18.660Z,3
2023-04-21T07:30:18.854Z,10
2023-04-21T07:35:18.698Z,7
2023-04-21T07:40:18.952Z,6
2023-04-21T07:45:15.765Z,2
2023-04-21T07:50:19.008Z,3
2023-04-21T07:55:18.813Z,3
2023-04-21T08:00:18.848Z,6
2023-04-21T08:05:18.846Z,3
2023-04-21T08:10:18.700Z,5
2023-04-21T08:15:18.787Z,2
2023-04-21T08:20:18.895Z,4
2023-04-21T08:25:18.880Z,2
2023-04-21T08:30:18.887Z,3
2023-04-21T08:35:15.774Z,3
2023-04-21T08:40:15.737Z,1
2023-04-21T08:45:19.066Z,1
2023-04-21T08:50:18.853Z,7
2023-04-21T08:55:18.848Z,5
2023-04-21T09:00:18.944Z,3
2023-04-21T09:05:19.290Z,7
2023-04-21T09:10:18.959Z,7
2023-04-21T09:15:19.001Z,7
2023-04-21T09:20:19.107Z,4
2023-04-21T09:25:18.973Z,2
2023-04-21T09:30:15.951Z,5
2023-04-21T09:35:15.866Z,8
2023-04-21T09:40:19.039Z,7
2023-04-21T09:45:39.199Z,2
2023-04-21T09:50:26.765Z,2
2023-04-21T09:55:18.956Z,3
2023-04-21T10:00:19.033Z,2
2023-04-21T10:05:19.149Z,2
2023-04-21T10:10:18.958Z,2
2023-04-21T10:15:19.148Z,1
2023-04-21T10:20:19.063Z,3
2023-04-21T10:25:16.028Z,5
2023-04-21T10:30:16.338Z,3
2023-04-21T10:35:19.090Z,3
2023-04-21T10:40:19.137Z,1
2023-04-21T10:45:19.125Z,3
2023-04-21T10:50:19.161Z,3
2023-04-21T10:55:19.158Z,1
2023-04-21T11:00:19.124Z,5
2023-04-21T11:05:19.094Z,3
2023-04-21T11:10:19.178Z,3
2023-04-21T11:15:16.102Z,7
2023-04-21T11:20:16.078Z,5
2023-04-21T11:25:19.218Z,7
2023-04-21T11:30:19.208Z,7
2023-04-21T11:35:19.163Z,4
2023-04-21T11:40:19.195Z,6
2023-04-21T11:45:21.898Z,7
2023-04-21T11:50:19.167Z,6
2023-04-21T11:55:19.178Z,8
2023-04-21T12:00:19.291Z,3
2023-04-21T12:05:19.363Z,5
2023-04-21T12:10:16.119Z,2
2023-04-21T12:15:16.067Z,4
2023-04-21T12:20:19.248Z,4
2023-04-21T12:25:19.321Z,9
2023-04-21T12:30:19.367Z,5
2023-04-21T12:35:19.314Z,3
2023-04-21T12:40:19.553Z,3
2023-04-21T12:45:19.303Z,5
2023-04-21T12:50:19.275Z,1
2023-04-21T12:55:19.367Z,3
2023-04-21T13:00:19.333Z,3
2023-04-21T13:05:16.223Z,5
2023-04-21T13:10:19.262Z,2
2023-04-21T13:15:19.432Z,2
2023-04-21T13:20:19.467Z,3
2023-04-21T13:25:19.369Z,3
2023-04-21T13:30:19.359Z,5
2023-04-21T13:35:19.449Z,3
2023-04-21T13:40:19.353Z,5
2023-04-21T13:45:19.374Z,3
2023-04-21T13:50:19.566Z,7
2023-04-21T13:55:16.323Z,5
2023-04-21T14:00:16.269Z,5
2023-04-21T14:05:19.565Z,8
2023-04-21T14:10:19.416Z,5
2023-04-21T14:15:19.460Z,5
2023-04-21T14:20:19.502Z,4
2023-04-21T14:25:19.539Z,5
2023-04-21T14:30:19.375Z,7
2023-04-21T14:35:19.638Z,5
2023-04-21T14:40:19.439Z,4
2023-04-21T14:45:19.589Z,5
2023-04-21T14:50:16.482Z,7
2023-04-21T14:55:16.432Z,7
2023-04-21T15:00:19.662Z,8
2023-04-21T15:05:19.698Z,5
2023-04-21T15:10:19.544Z,6
2023-04-21T15:15:19.563Z,7
2023-04-21T15:20:22.623Z,6
2023-04-21T15:25:19.502Z,3
2023-04-21T15:30:19.645Z,5
2023-04-21T15:35:19.633Z,4
2023-04-21T15:40:19.651Z,7
2023-04-21T15:45:16.579Z,7
2023-04-21T15:50:19.543Z,7
2023-04-21T15:55:19.661Z,7
2023-04-21T16:00:19.652Z,9
2023-04-21T16:05:19.983Z,5
2023-04-21T16:10:19.566Z,8
2023-04-21T16:15:24.179Z,7
2023-04-21T16:20:19.561Z,4
2023-04-21T16:25:19.890Z,5
2023-04-21T16:30:19.818Z,9
2023-04-21T16:35:16.594Z,5
2023-04-21T16:40:16.593Z,7
2023-04-21T16:45:19.869Z,8
2023-04-21T16:50:19.672Z,7
2023-04-21T16:55:19.701Z,7
2023-04-21T17:00:19.626Z,5
2023-04-21T17:05:19.713Z,6
2023-04-21T17:10:19.700Z,8
2023-04-21T17:15:19.760Z,5
2023-04-21T17:20:19.660Z,5
2023-04-21T17:25:19.732Z,5
2023-04-21T17:30:16.581Z,6
2023-04-21T17:35:19.748Z,6
2023-04-21T17:40:19.746Z,8
2023-04-21T17:45:19.699Z,7
2023-04-21T17:50:19.775Z,7
2023-04-21T17:55:20.034Z,5
2023-04-21T18:00:19.779Z,9
2023-04-21T18:05:19.793Z,8
2023-04-21T18:10:19.698Z,8
2023-04-21T18:15:19.764Z,8
2023-04-21T18:20:16.681Z,6
2023-04-21T18:25:20.235Z,8
2023-04-21T18:30:19.955Z,6
2023-04-21T18:35:19.740Z,11
2023-04-21T18:40:20.021Z,9
2023-04-21T18:45:19.857Z,8
2023-04-21T18:50:19.821Z,8
2023-04-21T18:55:19.852Z,8
2023-04-21T19:00:19.889Z,8
2023-04-21T19:05:19.938Z,9
2023-04-21T19:10:19.810Z,6
2023-04-21T19:15:16.742Z,8
2023-04-21T19:20:16.702Z,12
2023-04-21T19:25:19.930Z,8
2023-04-21T19:30:19.842Z,8
2023-04-21T19:35:19.815Z,8
2023-04-21T19:40:19.910Z,8
2023-04-21T19:45:19.890Z,7
2023-04-21T19:50:19.782Z,5
2023-04-21T19:55:19.814Z,7
2023-04-21T20:00:19.897Z,11
2023-04-21T20:05:19.892Z,8
2023-04-21T20:10:16.797Z,11
2023-04-21T20:15:20.080Z,8
2023-04-21T20:20:19.988Z,13
2023-04-21T20:25:19.918Z,9
2023-04-21T20:30:19.892Z,8
2023-04-21T20:35:20.014Z,7
2023-04-21T20:40:19.992Z,13
2023-04-21T20:45:19.973Z,10
2023-04-21T20:50:20.020Z,11
2023-04-21T20:55:19.999Z,7
2023-04-21T21:00:16.952Z,10
2023-04-21T21:05:16.897Z,7
2023-04-21T21:10:20.025Z,9
2023-04-21T21:15:20.078Z,10
2023-04-21T21:20:20.023Z,8
2023-04-21T21:25:20.190Z,8
2023-04-21T21:30:20.029Z,9
2023-04-21T21:35:20.036Z,8
2023-04-21T21:40:19.979Z,6
2023-04-21T21:45:20.100Z,7
2023-04-21T21:50:20.038Z,6
2023-04-21T21:55:16.950Z,9
2023-04-21T22:00:17.181Z,10
2023-04-21T22:05:20.184Z,10
2023-04-21T22:10:20.069Z,7
2023-04-21T22:15:20.045Z,7
2023-04-21T22:20:20.106Z,6
2023-04-21T22:25:20.130Z,5
2023-04-21T22:30:20.224Z,5
2023-04-21T22:35:20.132Z,9
2023-04-21T22:40:20.019Z,5
2023-04-21T22:45:20.139Z,6
2023-04-21T22:50:16.972Z,10
2023-04-21T22:55:17.289Z,7
2023-04-21T23:00:20.111Z,8
2023-04-21T23:05:20.188Z,4
2023-04-21T23:10:20.110Z,7
2023-04-21T23:15:20.389Z,9
2023-04-21T23:20:20.191Z,4
2023-04-21T23:25:20.053Z,7
2023-04-21T23:30:20.140Z,5
2023-04-21T23:35:20.163Z,4
2023-04-21T23:40:17.092Z,3
2023-04-21T23:45:17.210Z,5
2023-04-21T23:50:20.386Z,7
2023-04-21T23:55:20.197Z,5
